createdAt,value
2022-08-14T00:02:07.144Z,23.65
2022-08-14T00:04:44.606Z,22.88
2022-08-14T00:07:13.955Z,24.92
2022-08-14T00:10:02.048Z,27.40
2022-08-14T00:12:33.437Z,26.52
2022-08-14T00:15:20.195Z,24.15
2022-08-14T00:17:53.343Z,25.92
2022-08-14T00:20:30.956Z,23.15
2022-08-14T00:23:12.642Z,25.73
2022-08-14T00:25:54.069Z,25.80
2022-08-14T00:28:35.442Z,25.55
2022-08-14T00:33:50.585Z,25.17
2022-08-14T00:36:35.580Z,25.42
2022-08-14T00:39:06.432Z,23.42
2022-08-14T00:41:33.884Z,24.42
2022-08-14T00:44:00.832Z,27.40
2022-08-14T00:46:33.055Z,25.50
2022-08-14T00:49:00.810Z,22.92
2022-08-14T00:51:34.666Z,23.40
2022-08-14T00:54:11.113Z,25.50
2022-08-14T00:56:49.610Z,23.20
2022-08-14T00:59:16.397Z,24.20
2022-08-14T01:01:44.368Z,25.00
2022-08-14T01:04:38.339Z,22.30
2022-08-14T01:06:59.142Z,25.10
2022-08-14T01:09:26.673Z,23.67
2022-08-14T01:12:03.284Z,23.83
2022-08-14T01:14:30.497Z,27.90
2022-08-14T01:16:58.055Z,24.35
2022-08-14T01:19:46.749Z,23.67
2022-08-14T01:22:18.912Z,21.75
2022-08-14T01:24:47.018Z,24.20
2022-08-14T01:27:24.122Z,23.95
2022-08-14T01:29:58.860Z,24.25
2022-08-14T01:32:30.226Z,23.63
2022-08-14T01:35:19.977Z,27.52
2022-08-14T01:37:54.697Z,24.23
2022-08-14T01:40:36.518Z,27.20
2022-08-14T01:43:14.585Z,26.50
2022-08-14T01:45:42.463Z,25.75
2022-08-14T01:48:16.074Z,27.45
2022-08-14T01:50:47.718Z,29.20
2022-08-14T01:53:15.454Z,27.83
2022-08-14T01:55:42.543Z,30.23
2022-08-14T01:58:19.961Z,28.52
2022-08-14T02:00:55.364Z,28.05
2022-08-14T02:03:30.722Z,31.95
2022-08-14T02:06:00.075Z,30.17
2022-08-14T02:08:34.661Z,28.38
2022-08-14T02:11:18.889Z,28.33
2022-08-14T02:14:07.158Z,26.80
2022-08-14T02:16:39.683Z,26.65
2022-08-14T02:19:13.536Z,27.73
2022-08-14T02:21:46.951Z,27.75
2022-08-14T02:24:39.752Z,28.25
2022-08-14T02:28:24.312Z,29.35
2022-08-14T02:29:59.462Z,24.55
2022-08-14T02:32:30.643Z,25.83
2022-08-14T02:35:16.009Z,23.02
2022-08-14T02:37:47.379Z,23.55
2022-08-14T02:40:16.567Z,22.80
2022-08-14T02:42:54.848Z,21.73
2022-08-14T02:45:33.422Z,22.23
2022-08-14T02:48:10.409Z,21.15
2022-08-14T02:50:54.285Z,22.20
2022-08-14T02:53:21.142Z,25.38
2022-08-14T02:55:47.984Z,26.25
2022-08-14T02:58:29.243Z,24.67
2022-08-14T03:00:58.307Z,27.42
2022-08-14T03:03:25.804Z,29.30
2022-08-14T03:05:54.198Z,28.42
2022-08-14T03:08:21.506Z,28.30
2022-08-14T03:10:50.331Z,29.63
2022-08-14T03:13:21.383Z,29.73
2022-08-14T03:15:56.186Z,31.10
2022-08-14T03:18:31.697Z,30.10
2022-08-14T03:21:05.872Z,33.00
2022-08-14T03:23:37.926Z,31.20
2022-08-14T03:26:12.933Z,32.95
2022-08-14T03:28:48.502Z,30.75
2022-08-14T03:33:43.283Z,33.72
2022-08-14T03:37:39.127Z,31.38
2022-08-14T03:39:16.391Z,32.63
2022-08-14T03:41:54.792Z,28.75
2022-08-14T03:45:26.345Z,29.75
2022-08-14T03:47:11.657Z,28.70
2022-08-14T03:49:42.194Z,30.33
2022-08-14T03:52:18.153Z,28.13
2022-08-14T03:54:56.352Z,29.73
2022-08-14T03:57:23.759Z,27.42
2022-08-14T03:59:50.712Z,31.75
2022-08-14T04:02:33.255Z,27.77
2022-08-14T04:05:11.711Z,29.88
2022-08-14T04:07:49.427Z,29.50
2022-08-14T04:10:17.559Z,33.70
2022-08-14T04:13:03.489Z,30.50
2022-08-14T04:15:31.802Z,30.77
2022-08-14T04:18:18.522Z,28.85
2022-08-14T04:20:55.024Z,28.92
2022-08-14T04:23:29.103Z,30.95
2022-08-14T04:25:56.751Z,29.73
2022-08-14T04:29:01.975Z,29.85
2022-08-14T04:31:11.765Z,28.20
2022-08-14T04:33:42.682Z,31.50
2022-08-14T04:36:16.073Z,31.77
2022-08-14T04:39:03.030Z,30.27
2022-08-14T04:41:48.548Z,32.80
2022-08-14T04:44:36.276Z,33.30
2022-08-14T04:47:23.668Z,29.58
2022-08-14T04:49:57.050Z,28.70
2022-08-14T04:52:25.329Z,30.95
2022-08-14T04:54:52.397Z,29.95
2022-08-14T04:57:21.847Z,29.90
2022-08-14T04:59:49.590Z,30.42
2022-08-14T05:02:18.147Z,28.35
2022-08-14T05:04:45.519Z,34.80
2022-08-14T05:07:46.730Z,34.57
2022-08-14T05:10:16.800Z,31.88
2022-08-14T05:13:13.652Z,32.95
2022-08-14T05:15:39.500Z,34.38
2022-08-14T05:18:17.794Z,35.42
2022-08-14T05:21:59.260Z,38.25
2022-08-14T05:23:51.967Z,33.80
2022-08-14T05:26:21.702Z,33.37
2022-08-14T05:28:49.028Z,35.05
2022-08-14T05:31:20.620Z,34.55
2022-08-14T05:33:56.834Z,31.38
2022-08-14T05:36:24.683Z,35.15
2022-08-14T05:38:53.179Z,31.52
2022-08-14T05:41:20.258Z,31.77
2022-08-14T05:43:48.949Z,30.70
2022-08-14T05:46:19.006Z,31.65
2022-08-14T05:48:53.478Z,31.80
2022-08-14T05:51:21.819Z,32.67
2022-08-14T05:54:01.887Z,28.88
2022-08-14T05:56:36.957Z,29.25
2022-08-14T05:59:04.448Z,27.10
2022-08-14T06:01:32.227Z,29.85
2022-08-14T06:03:59.006Z,29.92
2022-08-14T06:06:26.085Z,28.80
2022-08-14T06:08:52.951Z,29.42
2022-08-14T06:11:30.794Z,29.83
2022-08-14T06:13:58.650Z,30.38
2022-08-14T06:16:25.790Z,29.33
2022-08-14T06:18:53.277Z,27.48
2022-08-14T06:21:22.001Z,30.13
2022-08-14T06:23:49.492Z,26.73
2022-08-14T06:26:20.707Z,28.23
2022-08-14T06:28:52.370Z,25.73
2022-08-14T06:31:20.477Z,27.15
2022-08-14T06:35:11.737Z,26.60
2022-08-14T06:36:36.662Z,29.80
2022-08-14T06:39:03.602Z,25.63
2022-08-14T06:41:56.636Z,28.35
2022-08-14T06:44:21.613Z,27.33
2022-08-14T06:46:57.673Z,30.02
2022-08-14T06:49:27.102Z,26.40
2022-08-14T06:51:54.457Z,26.42
2022-08-14T06:54:21.234Z,26.02
2022-08-14T06:56:54.096Z,30.48
2022-08-14T06:59:21.607Z,25.75
2022-08-14T07:02:13.281Z,27.98
2022-08-14T07:05:05.337Z,28.17
2022-08-14T07:07:39.669Z,26.85
2022-08-14T07:10:17.061Z,26.45
2022-08-14T07:13:01.015Z,27.17
2022-08-14T07:15:29.553Z,27.67
2022-08-14T07:20:30.906Z,26.02
2022-08-14T07:23:07.798Z,29.45
2022-08-14T07:25:37.661Z,29.05
2022-08-14T07:28:12.793Z,27.10
2022-08-14T07:30:51.590Z,24.33
2022-08-14T07:33:20.682Z,23.83
2022-08-14T07:35:57.652Z,29.20
2022-08-14T07:38:33.661Z,26.15
2022-08-14T07:41:06.899Z,24.70
2022-08-14T07:43:43.170Z,22.90
2022-08-14T07:46:11.074Z,22.92
2022-08-14T07:48:40.725Z,23.52
2022-08-14T07:51:10.590Z,25.03
2022-08-14T07:56:44.101Z,20.83
2022-08-14T07:58:58.189Z,24.10
2022-08-14T08:01:27.898Z,23.27
2022-08-14T08:04:01.413Z,22.35
2022-08-14T08:06:30.768Z,25.05
2022-08-14T08:09:01.114Z,23.77
2022-08-14T08:11:37.320Z,24.77
2022-08-14T08:14:17.421Z,22.35
2022-08-14T08:16:47.494Z,23.52
2022-08-14T08:19:19.238Z,23.63
2022-08-14T08:21:47.078Z,21.65
2022-08-14T08:24:19.754Z,24.90
2022-08-14T08:26:47.034Z,24.92
2022-08-14T08:29:22.351Z,27.30
2022-08-14T08:31:55.491Z,22.58
2022-08-14T08:34:23.694Z,26.40
2022-08-14T08:36:52.566Z,27.80
2022-08-14T08:39:22.866Z,24.13
2022-08-14T08:41:53.861Z,27.35
2022-08-14T08:44:32.499Z,25.27
2022-08-14T08:47:05.595Z,23.77
2022-08-14T08:49:43.327Z,23.90
2022-08-14T08:52:31.007Z,27.60
2022-08-14T08:54:59.601Z,25.83
2022-08-14T08:57:33.324Z,23.65
2022-08-14T09:00:02.746Z,23.95
2022-08-14T09:02:36.984Z,26.98
2022-08-14T09:05:04.189Z,20.77
2022-08-14T09:07:31.501Z,23.52
2022-08-14T09:10:00.110Z,21.27
2022-08-14T09:12:33.148Z,25.42
2022-08-14T09:15:09.082Z,23.45
2022-08-14T09:17:43.583Z,22.77
2022-08-14T09:20:14.066Z,23.65
2022-08-14T09:22:54.809Z,21.95
2022-08-14T09:26:00.445Z,23.17
2022-08-14T09:28:09.277Z,21.77
2022-08-14T09:30:40.404Z,22.48
2022-08-14T09:33:56.422Z,22.58
2022-08-14T09:36:53.494Z,22.77
2022-08-14T09:39:42.330Z,24.52
2022-08-14T09:42:33.980Z,25.95
2022-08-14T09:45:24.026Z,25.83
2022-08-14T09:47:57.877Z,32.47
2022-08-14T09:50:30.558Z,27.73
2022-08-14T09:53:05.162Z,30.15
2022-08-14T09:55:42.378Z,30.38
2022-08-14T09:58:15.097Z,32.25
2022-08-14T10:00:50.302Z,31.25
2022-08-14T10:03:33.041Z,29.27
2022-08-14T10:06:13.720Z,31.83
2022-08-14T10:08:51.245Z,32.00
2022-08-14T10:11:34.834Z,32.80
2022-08-14T10:14:21.091Z,34.72
2022-08-14T10:17:05.256Z,34.63
2022-08-14T10:19:35.350Z,36.08
2022-08-14T10:23:15.420Z,35.13
2022-08-14T10:24:56.469Z,32.45
2022-08-14T10:27:25.217Z,34.53
2022-08-14T10:30:01.399Z,35.97
2022-08-14T10:32:49.698Z,42.75
2022-08-14T10:35:16.534Z,34.78
2022-08-14T10:37:49.497Z,34.97
2022-08-14T10:40:38.886Z,33.35
2022-08-14T10:43:19.001Z,37.13
2022-08-14T10:45:59.707Z,36.87
2022-08-14T10:49:05.170Z,34.30
2022-08-14T10:51:35.286Z,36.97
2022-08-14T10:54:35.181Z,36.67
2022-08-14T10:56:55.950Z,35.30
2022-08-14T10:59:30.838Z,34.20
2022-08-14T11:02:02.266Z,35.15
2022-08-14T11:04:30.547Z,35.13
2022-08-14T11:06:58.376Z,36.90
2022-08-14T11:09:32.047Z,35.08
2022-08-14T11:12:34.865Z,35.47
2022-08-14T11:15:02.337Z,36.05
2022-08-14T11:17:32.715Z,33.70
2022-08-14T11:20:02.506Z,37.25
2022-08-14T11:25:21.219Z,34.50
2022-08-14T11:27:49.123Z,37.05
2022-08-14T11:30:49.867Z,36.40
2022-08-14T11:33:09.270Z,36.08
2022-08-14T11:35:47.228Z,38.05
2022-08-14T11:38:16.978Z,35.90
2022-08-14T11:40:47.095Z,35.88
2022-08-14T11:43:15.038Z,33.60
2022-08-14T11:45:47.838Z,35.03
2022-08-14T11:48:59.191Z,35.00
2022-08-14T11:51:13.679Z,33.58
2022-08-14T11:53:45.697Z,37.50
2022-08-14T11:56:13.170Z,35.25
2022-08-14T11:58:40.722Z,33.78
2022-08-14T12:01:09.831Z,33.15
2022-08-14T12:03:52.058Z,32.20
2022-08-14T12:06:29.267Z,33.33
2022-08-14T12:09:15.332Z,31.13
2022-08-14T12:11:46.929Z,34.45
2022-08-14T12:14:34.842Z,32.50
2022-08-14T12:17:12.822Z,32.75
2022-08-14T12:19:57.040Z,31.70
2022-08-14T12:22:35.845Z,35.05
2022-08-14T12:25:13.797Z,33.53
2022-08-14T12:27:54.033Z,31.65
2022-08-14T12:30:39.718Z,32.30
2022-08-14T12:33:35.893Z,31.65
2022-08-14T12:36:19.846Z,29.63
2022-08-14T12:38:54.087Z,28.95
2022-08-14T12:41:34.400Z,29.90
2022-08-14T12:44:06.648Z,31.80
2022-08-14T12:46:43.426Z,31.60
2022-08-14T12:49:17.172Z,29.17
2022-08-14T12:51:56.842Z,27.45
2022-08-14T12:54:26.468Z,29.37
2022-08-14T12:57:19.501Z,28.00
2022-08-14T12:59:47.546Z,28.30
2022-08-14T13:02:39.002Z,27.30
2022-08-14T13:05:10.746Z,31.70
2022-08-14T13:07:40.180Z,30.58
2022-08-14T13:10:51.227Z,33.00
2022-08-14T13:13:13.617Z,31.00
2022-08-14T13:15:45.469Z,29.65
2022-08-14T13:20:49.498Z,29.50
2022-08-14T13:23:30.645Z,31.00
2022-08-14T13:26:01.002Z,29.98
2022-08-14T13:28:33.775Z,29.67
2022-08-14T13:31:11.068Z,31.75
2022-08-14T13:33:40.658Z,27.75
2022-08-14T13:36:09.149Z,27.88
2022-08-14T13:38:35.890Z,29.88
2022-08-14T13:41:03.151Z,30.02
2022-08-14T13:43:31.457Z,28.58
2022-08-14T13:46:03.970Z,31.52
2022-08-14T13:48:33.204Z,28.65
2022-08-14T13:51:08.021Z,28.00
2022-08-14T13:54:07.068Z,28.92
2022-08-14T13:56:39.818Z,27.92
2022-08-14T13:59:07.431Z,30.63
2022-08-14T14:01:42.673Z,30.60
2022-08-14T14:04:19.642Z,30.38
2022-08-14T14:06:49.238Z,29.55
2022-08-14T14:09:21.549Z,25.88
2022-08-14T14:11:52.810Z,27.55
2022-08-14T14:14:44.617Z,28.15
2022-08-14T14:17:12.481Z,26.92
2022-08-14T14:19:41.905Z,26.35
2022-08-14T14:22:13.610Z,30.33
2022-08-14T14:25:00.616Z,28.35
2022-08-14T14:27:40.778Z,25.75
2022-08-14T14:30:46.004Z,26.42
2022-08-14T14:33:02.366Z,29.42
2022-08-14T14:35:34.930Z,28.08
2022-08-14T14:38:09.047Z,26.50
2022-08-14T14:43:28.145Z,29.67
2022-08-14T14:45:56.285Z,29.65
2022-08-14T14:50:59.377Z,26.85
2022-08-14T14:53:39.397Z,31.20
2022-08-14T14:56:50.337Z,26.55
2022-08-14T14:58:57.769Z,28.25
2022-08-14T15:01:25.258Z,28.95
2022-08-14T15:03:55.079Z,30.85
2022-08-14T15:06:30.196Z,29.13
2022-08-14T15:08:59.926Z,30.35
2022-08-14T15:13:59.122Z,28.83
2022-08-14T15:16:27.517Z,28.52
2022-08-14T15:18:54.701Z,27.70
2022-08-14T15:21:21.590Z,28.55
2022-08-14T15:23:50.593Z,32.20
2022-08-14T15:26:31.286Z,34.67
2022-08-14T15:29:06.556Z,29.48
2022-08-14T15:31:36.409Z,29.45
2022-08-14T15:34:44.381Z,27.27
2022-08-14T15:37:03.274Z,27.98
2022-08-14T15:39:33.988Z,30.05
2022-08-14T15:42:14.680Z,27.20
2022-08-14T15:44:44.779Z,26.83
2022-08-14T15:47:28.902Z,31.80
2022-08-14T15:49:59.652Z,30.33
2022-08-14T15:52:35.307Z,28.52
2022-08-14T15:55:12.975Z,30.75
2022-08-14T15:57:51.469Z,29.85
2022-08-14T16:00:49.715Z,29.63
2022-08-14T16:03:27.143Z,29.65
2022-08-14T16:06:11.144Z,26.85
2022-08-14T16:08:44.286Z,30.90
2022-08-14T16:11:12.123Z,31.20
2022-08-14T16:13:44.314Z,31.35
2022-08-14T16:16:48.064Z,28.48
2022-08-14T16:19:09.810Z,29.45
2022-08-14T16:21:39.553Z,29.83
2022-08-14T16:24:06.448Z,33.88
2022-08-14T16:26:34.803Z,30.95
2022-08-14T16:29:06.354Z,27.08
2022-08-14T16:31:36.665Z,27.38
2022-08-14T16:34:45.629Z,26.13
2022-08-14T16:36:55.925Z,23.73
2022-08-14T16:39:23.890Z,25.33
2022-08-14T16:41:56.788Z,22.33
2022-08-14T16:44:33.554Z,24.23
2022-08-14T16:47:03.974Z,23.23
2022-08-14T16:50:03.310Z,21.30
2022-08-14T16:52:25.582Z,23.67
2022-08-14T16:55:07.452Z,18.15
2022-08-14T16:57:46.700Z,16.95
2022-08-14T17:00:43.565Z,17.58
2022-08-14T17:03:12.838Z,16.48
2022-08-14T17:05:43.440Z,17.63
2022-08-14T17:08:32.796Z,17.45
2022-08-14T17:11:10.159Z,16.80
2022-08-14T17:13:57.758Z,18.40
2022-08-14T17:16:29.620Z,15.07
2022-08-14T17:19:00.744Z,14.10
2022-08-14T17:21:35.377Z,23.73
2022-08-14T17:24:56.493Z,15.35
2022-08-14T17:27:03.961Z,24.42
2022-08-14T17:29:34.164Z,16.95
2022-08-14T17:32:21.930Z,17.20
2022-08-14T17:34:57.712Z,20.60
2022-08-14T17:37:39.249Z,18.73
2022-08-14T17:40:18.857Z,17.73
2022-08-14T17:42:51.385Z,15.02
2022-08-14T17:45:42.760Z,15.77
2022-08-14T17:49:14.195Z,16.60
2022-08-14T17:51:23.977Z,17.27
2022-08-14T17:54:02.556Z,15.55
2022-08-14T17:56:34.034Z,15.95
2022-08-14T17:59:06.880Z,15.60
2022-08-14T18:01:40.700Z,17.00
2022-08-14T18:04:24.917Z,15.48
2022-08-14T18:07:16.222Z,16.27
2022-08-14T18:09:57.451Z,15.27
2022-08-14T18:12:48.712Z,14.70
2022-08-14T18:17:52.919Z,15.80
2022-08-14T18:21:40.516Z,16.02
2022-08-14T18:23:13.767Z,17.70
2022-08-14T18:25:54.489Z,18.70
2022-08-14T18:28:47.994Z,18.88
2022-08-14T18:31:42.353Z,19.33
2022-08-14T18:34:32.150Z,18.02
2022-08-14T18:37:13.888Z,18.13
2022-08-14T18:40:01.732Z,23.15
2022-08-14T18:42:34.849Z,19.83
2022-08-14T18:45:12.230Z,18.00
2022-08-14T18:50:32.205Z,23.15
2022-08-14T18:53:10.541Z,21.23
2022-08-14T18:55:53.047Z,19.67
2022-08-14T18:58:27.666Z,19.80
2022-08-14T19:01:00.794Z,20.48
2022-08-14T19:03:37.379Z,18.52
2022-08-14T19:06:07.206Z,18.95
2022-08-14T19:08:42.230Z,20.13
2022-08-14T19:11:39.768Z,21.63
2022-08-14T19:14:08.002Z,21.48
2022-08-14T19:16:42.757Z,23.58
2022-08-14T19:19:11.816Z,21.67
2022-08-14T19:21:45.241Z,20.35
2022-08-14T19:24:45.323Z,20.98
2022-08-14T19:27:37.980Z,24.63
2022-08-14T19:30:19.245Z,19.80
2022-08-14T19:32:52.258Z,21.17
2022-08-14T19:35:24.466Z,23.63
2022-08-14T19:37:58.458Z,21.90
2022-08-14T19:40:43.084Z,23.17
2022-08-14T19:43:10.785Z,21.52
2022-08-14T19:45:44.575Z,21.70
2022-08-14T19:48:14.068Z,24.15
2022-08-14T19:50:44.932Z,20.95
2022-08-14T19:53:16.964Z,22.52
2022-08-14T19:55:56.583Z,22.42
2022-08-14T19:58:26.075Z,25.95
2022-08-14T20:00:57.265Z,22.98
2022-08-14T20:03:26.821Z,22.80
2022-08-14T20:06:13.709Z,23.38
2022-08-14T20:10:58.500Z,22.40
2022-08-14T20:12:02.063Z,23.13
2022-08-14T20:14:29.833Z,22.98
2022-08-14T20:17:06.054Z,27.20
2022-08-14T20:19:38.011Z,22.58
2022-08-14T20:22:36.932Z,23.27
2022-08-14T20:25:15.387Z,24.03
2022-08-14T20:27:44.470Z,23.98
2022-08-14T20:30:33.514Z,26.30
2022-08-14T20:33:11.758Z,26.33
2022-08-14T20:35:38.906Z,25.20
2022-08-14T20:38:29.711Z,23.70
2022-08-14T20:41:09.787Z,26.83
2022-08-14T20:44:00.967Z,29.02
2022-08-14T20:46:38.689Z,30.25
2022-08-14T20:49:09.046Z,28.35
2022-08-14T20:51:54.580Z,28.05
2022-08-14T20:54:36.898Z,28.98
2022-08-14T20:57:17.719Z,26.80
2022-08-14T20:59:52.924Z,30.48
2022-08-14T21:02:38.597Z,27.10
2022-08-14T21:05:16.899Z,28.45
2022-08-14T21:07:51.026Z,27.17
2022-08-14T21:10:35.604Z,31.98
2022-08-14T21:13:25.753Z,29.67
2022-08-14T21:15:57.587Z,29.60
2022-08-14T21:18:44.916Z,29.42
2022-08-14T21:21:18.039Z,27.27
2022-08-14T21:23:54.540Z,30.20
2022-08-14T21:26:51.242Z,27.92
2022-08-14T21:29:12.020Z,26.92
2022-08-14T21:31:41.829Z,26.92
2022-08-14T21:34:27.277Z,27.00
2022-08-14T21:36:56.637Z,27.33
2022-08-14T21:39:24.741Z,25.77
2022-08-14T21:41:58.650Z,30.85
2022-08-14T21:44:43.107Z,29.05
2022-08-14T21:47:12.401Z,26.83
2022-08-14T21:49:45.989Z,27.23
2022-08-14T21:52:51.651Z,27.33
2022-08-14T21:55:12.344Z,28.27
2022-08-14T21:58:46.100Z,28.70
2022-08-14T22:00:36.555Z,26.40
2022-08-14T22:03:10.106Z,25.75
2022-08-14T22:05:40.022Z,26.20
2022-08-14T22:08:12.089Z,25.67
2022-08-14T22:10:42.422Z,28.58
2022-08-14T22:13:12.579Z,27.30
2022-08-14T22:15:43.886Z,28.15
2022-08-14T22:18:20.380Z,25.52
2022-08-14T22:20:48.402Z,28.25
2022-08-14T22:23:21.715Z,28.60
2022-08-14T22:25:51.247Z,29.75
2022-08-14T22:28:33.430Z,27.05
2022-08-14T22:31:03.682Z,32.17
2022-08-14T22:33:38.157Z,27.75
2022-08-14T22:36:26.154Z,27.77
2022-08-14T22:38:54.724Z,27.05
2022-08-14T22:41:30.503Z,29.52
2022-08-14T22:44:12.999Z,28.13
2022-08-14T22:46:43.601Z,27.77
2022-08-14T22:49:16.092Z,27.67
2022-08-14T22:52:04.753Z,26.00
2022-08-14T22:54:53.823Z,28.25
2022-08-14T22:57:20.728Z,29.27
2022-08-14T22:59:50.375Z,30.30
2022-08-14T23:02:30.423Z,28.50
2022-08-14T23:05:03.885Z,26.85
2022-08-14T23:08:59.555Z,27.42
2022-08-14T23:10:32.821Z,26.42
2022-08-14T23:13:02.129Z,26.60
2022-08-14T23:15:30.351Z,26.27
2022-08-14T23:17:57.529Z,36.35
2022-08-14T23:20:29.460Z,25.17
2022-08-14T23:22:57.405Z,25.58
2022-08-14T23:25:58.004Z,27.42
2022-08-14T23:28:33.900Z,24.77
2022-08-14T23:31:12.777Z,25.90
2022-08-14T23:33:46.251Z,26.20
2022-08-14T23:36:31.426Z,28.02
2022-08-14T23:39:00.285Z,26.67
2022-08-14T23:41:27.083Z,26.17
2022-08-14T23:44:15.080Z,26.25
2022-08-14T23:46:43.416Z,27.08
2022-08-14T23:49:12.552Z,26.00
2022-08-14T23:51:39.437Z,25.50
2022-08-14T23:54:48.117Z,26.23
2022-08-14T23:57:02.519Z,27.33
2022-08-14T23:59:30.754Z,28.80
